sensor_id;sensor_type;location;lat;lon;timestamp;P1;durP1;ratioP1;P2;durP2;ratioP2
37781;SDS011;23621;50.878;4.584;2023-03-26T00:01:26;9.65;;;2.75;;
37781;SDS011;23621;50.878;4.584;2023-03-26T00:03:55;11.43;;;2.50;;
37781;SDS011;23621;50.878;4.584;2023-03-26T00:06:25;8.55;;;2.30;;
37781;SDS011;23621;50.878;4.584;2023-03-26T00:08:55;9.05;;;2.78;;
37781;SDS011;23621;50.878;4.584;2023-03-26T00:11:24;6.80;;;2.90;;
37781;SDS011;23621;50.878;4.584;2023-03-26T00:13:53;10.75;;;2.65;;
37781;SDS011;23621;50.878;4.584;2023-03-26T00:16:24;8.65;;;2.70;;
37781;SDS011;23621;50.878;4.584;2023-03-26T00:18:54;5.03;;;2.20;;
37781;SDS011;23621;50.878;4.584;2023-03-26T00:21:23;8.60;;;2.55;;
37781;SDS011;23621;50.878;4.584;2023-03-26T00:24:02;7.07;;;2.47;;
37781;SDS011;23621;50.878;4.584;2023-03-26T00:26:32;9.10;;;3.05;;
37781;SDS011;23621;50.878;4.584;2023-03-26T00:29:01;7.55;;;2.92;;
37781;SDS011;23621;50.878;4.584;2023-03-26T00:31:29;6.63;;;2.47;;
37781;SDS011;23621;50.878;4.584;2023-03-26T00:33:57;8.57;;;2.28;;
37781;SDS011;23621;50.878;4.584;2023-03-26T00:36:24;6.22;;;2.65;;
37781;SDS011;23621;50.878;4.584;2023-03-26T00:38:52;8.13;;;2.40;;
37781;SDS011;23621;50.878;4.584;2023-03-26T00:41:21;6.13;;;2.70;;
37781;SDS011;23621;50.878;4.584;2023-03-26T00:43:57;9.13;;;2.22;;
37781;SDS011;23621;50.878;4.584;2023-03-26T00:46:26;7.93;;;2.22;;
37781;SDS011;23621;50.878;4.584;2023-03-26T00:48:54;9.40;;;3.05;;
37781;SDS011;23621;50.878;4.584;2023-03-26T00:51:24;8.63;;;2.78;;
37781;SDS011;23621;50.878;4.584;2023-03-26T00:53:53;5.72;;;2.63;;
37781;SDS011;23621;50.878;4.584;2023-03-26T00:56:20;6.55;;;2.63;;
37781;SDS011;23621;50.878;4.584;2023-03-26T00:58:47;7.32;;;2.40;;
37781;SDS011;23621;50.878;4.584;2023-03-26T01:01:17;7.05;;;2.60;;
37781;SDS011;23621;50.878;4.584;2023-03-26T01:03:46;7.72;;;3.65;;
37781;SDS011;23621;50.878;4.584;2023-03-26T01:06:33;5.72;;;2.53;;
37781;SDS011;23621;50.878;4.584;2023-03-26T01:09:10;7.72;;;2.50;;
37781;SDS011;23621;50.878;4.584;2023-03-26T01:11:45;8.88;;;3.03;;
37781;SDS011;23621;50.878;4.584;2023-03-26T01:14:18;8.23;;;3.08;;
37781;SDS011;23621;50.878;4.584;2023-03-26T01:16:53;6.20;;;3.10;;
37781;SDS011;23621;50.878;4.584;2023-03-26T01:19:26;11.98;;;2.70;;
37781;SDS011;23621;50.878;4.584;2023-03-26T01:22:22;6.32;;;2.70;;
37781;SDS011;23621;50.878;4.584;2023-03-26T01:24:51;5.00;;;2.70;;
37781;SDS011;23621;50.878;4.584;2023-03-26T01:27:22;7.57;;;3.20;;
37781;SDS011;23621;50.878;4.584;2023-03-26T01:35:44;11.23;;;3.70;;
37781;SDS011;23621;50.878;4.584;2023-03-26T01:46:10;13.60;;;4.25;;
37781;SDS011;23621;50.878;4.584;2023-03-26T01:48:41;10.75;;;3.22;;
37781;SDS011;23621;50.878;4.584;2023-03-26T01:51:10;8.40;;;3.28;;
37781;SDS011;23621;50.878;4.584;2023-03-26T01:53:42;7.22;;;3.60;;
37781;SDS011;23621;50.878;4.584;2023-03-26T01:56:14;7.47;;;3.45;;
37781;SDS011;23621;50.878;4.584;2023-03-26T01:58:50;7.35;;;3.25;;
37781;SDS011;23621;50.878;4.584;2023-03-26T02:01:32;10.55;;;3.75;;
37781;SDS011;23621;50.878;4.584;2023-03-26T02:07:14;9.30;;;3.47;;
37781;SDS011;23621;50.878;4.584;2023-03-26T02:10:07;11.13;;;3.35;;
37781;SDS011;23621;50.878;4.584;2023-03-26T02:12:40;9.48;;;3.70;;
37781;SDS011;23621;50.878;4.584;2023-03-26T02:15:08;8.25;;;3.47;;
37781;SDS011;23621;50.878;4.584;2023-03-26T02:17:36;13.35;;;3.88;;
37781;SDS011;23621;50.878;4.584;2023-03-26T02:20:10;9.73;;;3.40;;
37781;SDS011;23621;50.878;4.584;2023-03-26T02:22:40;9.27;;;3.17;;
37781;SDS011;23621;50.878;4.584;2023-03-26T02:25:12;9.45;;;3.40;;
37781;SDS011;23621;50.878;4.584;2023-03-26T02:27:41;9.20;;;3.70;;
37781;SDS011;23621;50.878;4.584;2023-03-26T02:30:11;8.70;;;3.30;;
37781;SDS011;23621;50.878;4.584;2023-03-26T02:32:43;10.75;;;3.70;;
37781;SDS011;23621;50.878;4.584;2023-03-26T02:35:10;10.35;;;3.53;;
37781;SDS011;23621;50.878;4.584;2023-03-26T02:37:38;10.05;;;3.72;;
37781;SDS011;23621;50.878;4.584;2023-03-26T02:40:07;7.75;;;3.30;;
37781;SDS011;23621;50.878;4.584;2023-03-26T02:42:37;11.63;;;3.47;;
37781;SDS011;23621;50.878;4.584;2023-03-26T02:45:04;9.45;;;3.20;;
37781;SDS011;23621;50.878;4.584;2023-03-26T02:47:32;10.05;;;3.90;;
37781;SDS011;23621;50.878;4.584;2023-03-26T02:49:59;10.30;;;3.60;;
37781;SDS011;23621;50.878;4.584;2023-03-26T02:52:26;9.05;;;3.10;;
37781;SDS011;23621;50.878;4.584;2023-03-26T02:54:53;8.20;;;3.83;;
37781;SDS011;23621;50.878;4.584;2023-03-26T02:57:21;9.55;;;3.58;;
37781;SDS011;23621;50.878;4.584;2023-03-26T02:59:49;8.82;;;3.10;;
37781;SDS011;23621;50.878;4.584;2023-03-26T03:02:18;8.13;;;3.53;;
37781;SDS011;23621;50.878;4.584;2023-03-26T03:04:48;6.88;;;3.05;;
37781;SDS011;23621;50.878;4.584;2023-03-26T03:07:15;6.88;;;3.50;;
37781;SDS011;23621;50.878;4.584;2023-03-26T03:09:42;7.75;;;3.05;;
37781;SDS011;23621;50.878;4.584;2023-03-26T03:12:09;10.55;;;3.17;;
37781;SDS011;23621;50.878;4.584;2023-03-26T03:14:36;8.23;;;3.50;;
37781;SDS011;23621;50.878;4.584;2023-03-26T03:17:03;14.82;;;3.75;;
37781;SDS011;23621;50.878;4.584;2023-03-26T03:19:30;8.20;;;2.97;;
37781;SDS011;23621;50.878;4.584;2023-03-26T03:21:57;10.27;;;3.20;;
37781;SDS011;23621;50.878;4.584;2023-03-26T03:24:24;9.23;;;3.25;;
37781;SDS011;23621;50.878;4.584;2023-03-26T03:26:52;11.55;;;2.88;;
37781;SDS011;23621;50.878;4.584;2023-03-26T03:29:22;8.07;;;3.30;;
37781;SDS011;23621;50.878;4.584;2023-03-26T03:31:49;8.45;;;3.65;;
37781;SDS011;23621;50.878;4.584;2023-03-26T03:34:16;10.25;;;3.35;;
37781;SDS011;23621;50.878;4.584;2023-03-26T03:36:43;9.68;;;3.67;;
37781;SDS011;23621;50.878;4.584;2023-03-26T03:39:13;11.25;;;4.30;;
37781;SDS011;23621;50.878;4.584;2023-03-26T03:41:41;8.93;;;2.95;;
37781;SDS011;23621;50.878;4.584;2023-03-26T03:44:08;4.82;;;2.80;;
37781;SDS011;23621;50.878;4.584;2023-03-26T03:46:34;10.98;;;3.17;;
37781;SDS011;23621;50.878;4.584;2023-03-26T03:49:02;9.60;;;4.13;;
37781;SDS011;23621;50.878;4.584;2023-03-26T03:51:29;9.05;;;3.58;;
37781;SDS011;23621;50.878;4.584;2023-03-26T03:53:56;7.65;;;3.28;;
37781;SDS011;23621;50.878;4.584;2023-03-26T03:56:23;7.72;;;2.72;;
37781;SDS011;23621;50.878;4.584;2023-03-26T03:58:51;11.45;;;3.35;;
37781;SDS011;23621;50.878;4.584;2023-03-26T04:01:18;9.32;;;3.35;;
37781;SDS011;23621;50.878;4.584;2023-03-26T04:03:47;9.88;;;3.20;;
37781;SDS011;23621;50.878;4.584;2023-03-26T04:06:15;8.35;;;2.88;;
37781;SDS011;23621;50.878;4.584;2023-03-26T04:08:44;9.15;;;2.80;;
37781;SDS011;23621;50.878;4.584;2023-03-26T04:11:12;6.38;;;3.47;;
37781;SDS011;23621;50.878;4.584;2023-03-26T04:13:39;9.38;;;2.88;;
37781;SDS011;23621;50.878;4.584;2023-03-26T04:16:06;7.82;;;3.00;;
37781;SDS011;23621;50.878;4.584;2023-03-26T04:18:34;8.75;;;2.80;;
37781;SDS011;23621;50.878;4.584;2023-03-26T04:21:03;10.50;;;3.15;;
37781;SDS011;23621;50.878;4.584;2023-03-26T04:23:30;10.20;;;3.15;;
37781;SDS011;23621;50.878;4.584;2023-03-26T04:25:59;8.52;;;2.88;;
37781;SDS011;23621;50.878;4.584;2023-03-26T04:28:33;7.75;;;2.72;;
37781;SDS011;23621;50.878;4.584;2023-03-26T04:31:08;8.02;;;3.00;;
37781;SDS011;23621;50.878;4.584;2023-03-26T04:33:42;8.75;;;3.25;;
37781;SDS011;23621;50.878;4.584;2023-03-26T04:36:14;5.38;;;2.92;;
37781;SDS011;23621;50.878;4.584;2023-03-26T04:38:43;11.35;;;3.28;;
37781;SDS011;23621;50.878;4.584;2023-03-26T04:41:11;6.78;;;2.92;;
37781;SDS011;23621;50.878;4.584;2023-03-26T04:43:39;11.82;;;3.17;;
37781;SDS011;23621;50.878;4.584;2023-03-26T04:46:13;8.75;;;3.13;;
37781;SDS011;23621;50.878;4.584;2023-03-26T04:48:40;8.75;;;2.95;;
37781;SDS011;23621;50.878;4.584;2023-03-26T04:51:07;10.43;;;3.28;;
37781;SDS011;23621;50.878;4.584;2023-03-26T04:53:35;9.60;;;3.17;;
37781;SDS011;23621;50.878;4.584;2023-03-26T04:56:05;7.65;;;3.95;;
37781;SDS011;23621;50.878;4.584;2023-03-26T04:58:38;9.15;;;3.55;;
37781;SDS011;23621;50.878;4.584;2023-03-26T05:01:05;7.22;;;3.10;;
37781;SDS011;23621;50.878;4.584;2023-03-26T05:03:36;8.60;;;3.38;;
37781;SDS011;23621;50.878;4.584;2023-03-26T05:06:08;9.13;;;3.17;;
37781;SDS011;23621;50.878;4.584;2023-03-26T05:08:37;8.43;;;3.10;;
37781;SDS011;23621;50.878;4.584;2023-03-26T05:11:04;6.53;;;2.30;;
37781;SDS011;23621;50.878;4.584;2023-03-26T05:13:37;6.13;;;2.65;;
37781;SDS011;23621;50.878;4.584;2023-03-26T05:16:04;8.65;;;2.97;;
37781;SDS011;23621;50.878;4.584;2023-03-26T05:18:32;6.93;;;2.50;;
37781;SDS011;23621;50.878;4.584;2023-03-26T05:20:59;7.47;;;3.40;;
37781;SDS011;23621;50.878;4.584;2023-03-26T05:23:26;8.55;;;2.85;;
37781;SDS011;23621;50.878;4.584;2023-03-26T05:25:53;7.95;;;2.65;;
37781;SDS011;23621;50.878;4.584;2023-03-26T05:28:20;7.00;;;2.38;;
37781;SDS011;23621;50.878;4.584;2023-03-26T05:30:50;9.18;;;2.38;;
37781;SDS011;23621;50.878;4.584;2023-03-26T05:33:19;8.77;;;2.67;;
37781;SDS011;23621;50.878;4.584;2023-03-26T05:35:56;7.75;;;2.88;;
37781;SDS011;23621;50.878;4.584;2023-03-26T05:38:27;7.43;;;2.22;;
37781;SDS011;23621;50.878;4.584;2023-03-26T05:40:56;7.60;;;2.20;;
37781;SDS011;23621;50.878;4.584;2023-03-26T05:43:28;6.65;;;2.55;;
37781;SDS011;23621;50.878;4.584;2023-03-26T05:45:55;7.40;;;2.42;;
37781;SDS011;23621;50.878;4.584;2023-03-26T05:48:22;6.93;;;2.33;;
37781;SDS011;23621;50.878;4.584;2023-03-26T05:50:51;9.63;;;2.72;;
37781;SDS011;23621;50.878;4.584;2023-03-26T05:53:23;6.20;;;2.50;;
37781;SDS011;23621;50.878;4.584;2023-03-26T05:55:52;6.32;;;2.38;;
37781;SDS011;23621;50.878;4.584;2023-03-26T05:58:26;7.00;;;2.90;;
37781;SDS011;23621;50.878;4.584;2023-03-26T06:01:13;9.60;;;2.92;;
37781;SDS011;23621;50.878;4.584;2023-03-26T06:03:45;10.00;;;2.83;;
37781;SDS011;23621;50.878;4.584;2023-03-26T06:06:13;4.97;;;2.25;;
37781;SDS011;23621;50.878;4.584;2023-03-26T06:08:42;4.95;;;2.00;;
37781;SDS011;23621;50.878;4.584;2023-03-26T06:11:12;7.35;;;2.20;;
37781;SDS011;23621;50.878;4.584;2023-03-26T06:13:39;5.60;;;2.72;;
37781;SDS011;23621;50.878;4.584;2023-03-26T06:16:07;4.07;;;2.30;;
37781;SDS011;23621;50.878;4.584;2023-03-26T06:18:51;3.33;;;1.98;;
37781;SDS011;23621;50.878;4.584;2023-03-26T06:21:26;9.35;;;2.60;;
37781;SDS011;23621;50.878;4.584;2023-03-26T06:23:54;5.88;;;1.98;;
37781;SDS011;23621;50.878;4.584;2023-03-26T06:26:21;6.93;;;2.50;;
37781;SDS011;23621;50.878;4.584;2023-03-26T06:28:48;5.50;;;2.00;;
37781;SDS011;23621;50.878;4.584;2023-03-26T06:31:15;4.88;;;2.15;;
37781;SDS011;23621;50.878;4.584;2023-03-26T06:33:44;4.85;;;1.92;;
37781;SDS011;23621;50.878;4.584;2023-03-26T06:36:12;3.88;;;1.92;;
37781;SDS011;23621;50.878;4.584;2023-03-26T06:38:39;6.80;;;2.20;;
37781;SDS011;23621;50.878;4.584;2023-03-26T06:41:06;4.95;;;1.95;;
37781;SDS011;23621;50.878;4.584;2023-03-26T06:43:33;6.43;;;2.38;;
37781;SDS011;23621;50.878;4.584;2023-03-26T06:46:01;4.97;;;2.03;;
37781;SDS011;23621;50.878;4.584;2023-03-26T06:48:29;4.72;;;1.98;;
37781;SDS011;23621;50.878;4.584;2023-03-26T06:50:57;4.43;;;1.80;;
37781;SDS011;23621;50.878;4.584;2023-03-26T06:53:24;5.60;;;2.00;;
37781;SDS011;23621;50.878;4.584;2023-03-26T06:55:51;4.80;;;1.90;;
37781;SDS011;23621;50.878;4.584;2023-03-26T06:58:19;4.60;;;2.03;;
37781;SDS011;23621;50.878;4.584;2023-03-26T07:00:46;6.38;;;2.30;;
37781;SDS011;23621;50.878;4.584;2023-03-26T07:03:13;3.75;;;1.90;;
37781;SDS011;23621;50.878;4.584;2023-03-26T07:05:42;4.28;;;1.85;;
37781;SDS011;23621;50.878;4.584;2023-03-26T07:08:09;4.20;;;2.03;;
37781;SDS011;23621;50.878;4.584;2023-03-26T07:10:36;2.78;;;1.50;;
37781;SDS011;23621;50.878;4.584;2023-03-26T07:13:03;5.70;;;2.33;;
37781;SDS011;23621;50.878;4.584;2023-03-26T07:15:31;3.50;;;2.05;;
37781;SDS011;23621;50.878;4.584;2023-03-26T07:17:58;2.67;;;1.60;;
37781;SDS011;23621;50.878;4.584;2023-03-26T07:20:25;3.50;;;1.60;;
37781;SDS011;23621;50.878;4.584;2023-03-26T07:22:52;3.83;;;1.52;;
37781;SDS011;23621;50.878;4.584;2023-03-26T07:25:19;3.80;;;1.58;;
37781;SDS011;23621;50.878;4.584;2023-03-26T07:30:58;3.95;;;2.08;;
37781;SDS011;23621;50.878;4.584;2023-03-26T07:41:37;2.63;;;1.15;;
37781;SDS011;23621;50.878;4.584;2023-03-26T07:49:55;2.03;;;1.60;;
37781;SDS011;23621;50.878;4.584;2023-03-26T07:52:23;3.47;;;1.75;;
37781;SDS011;23621;50.878;4.584;2023-03-26T07:54:52;2.28;;;1.52;;
37781;SDS011;23621;50.878;4.584;2023-03-26T08:00:18;2.15;;;1.83;;
37781;SDS011;23621;50.878;4.584;2023-03-26T08:05:28;1.70;;;1.60;;
37781;SDS011;23621;50.878;4.584;2023-03-26T08:08:05;4.18;;;1.70;;
37781;SDS011;23621;50.878;4.584;2023-03-26T08:18:55;3.47;;;2.03;;
37781;SDS011;23621;50.878;4.584;2023-03-26T08:21:54;3.67;;;1.63;;
37781;SDS011;23621;50.878;4.584;2023-03-26T08:24:33;1.88;;;1.50;;
37781;SDS011;23621;50.878;4.584;2023-03-26T08:27:19;4.30;;;1.60;;
37781;SDS011;23621;50.878;4.584;2023-03-26T08:32:30;2.92;;;1.40;;
37781;SDS011;23621;50.878;4.584;2023-03-26T08:34:57;2.88;;;1.70;;
37781;SDS011;23621;50.878;4.584;2023-03-26T08:37:25;2.60;;;1.90;;
37781;SDS011;23621;50.878;4.584;2023-03-26T08:39:53;4.65;;;2.30;;
37781;SDS011;23621;50.878;4.584;2023-03-26T08:57:08;4.15;;;2.00;;
37781;SDS011;23621;50.878;4.584;2023-03-26T09:30:31;2.10;;;1.90;;
37781;SDS011;23621;50.878;4.584;2023-03-26T09:35:49;3.00;;;2.55;;
37781;SDS011;23621;50.878;4.584;2023-03-26T09:38:42;2.20;;;2.00;;
37781;SDS011;23621;50.878;4.584;2023-03-26T09:49:56;3.75;;;2.28;;
37781;SDS011;23621;50.878;4.584;2023-03-26T10:01:23;3.28;;;2.15;;
37781;SDS011;23621;50.878;4.584;2023-03-26T10:32:56;4.88;;;2.70;;
37781;SDS011;23621;50.878;4.584;2023-03-26T10:38:50;4.03;;;2.20;;
37781;SDS011;23621;50.878;4.584;2023-03-26T10:50:02;3.10;;;1.90;;
37781;SDS011;23621;50.878;4.584;2023-03-26T10:52:59;4.35;;;2.42;;
37781;SDS011;23621;50.878;4.584;2023-03-26T10:55:58;4.10;;;2.00;;
37781;SDS011;23621;50.878;4.584;2023-03-26T10:58:33;3.40;;;2.13;;
37781;SDS011;23621;50.878;4.584;2023-03-26T11:01:31;4.63;;;2.80;;
37781;SDS011;23621;50.878;4.584;2023-03-26T11:07:16;2.85;;;2.00;;
37781;SDS011;23621;50.878;4.584;2023-03-26T11:10:11;3.42;;;2.38;;
37781;SDS011;23621;50.878;4.584;2023-03-26T11:13:03;4.40;;;2.33;;
37781;SDS011;23621;50.878;4.584;2023-03-26T11:16:55;4.40;;;2.50;;
37781;SDS011;23621;50.878;4.584;2023-03-26T11:23:13;2.53;;;2.33;;
37781;SDS011;23621;50.878;4.584;2023-03-26T11:32:26;2.25;;;1.90;;
37781;SDS011;23621;50.878;4.584;2023-03-26T11:35:30;2.70;;;1.77;;
37781;SDS011;23621;50.878;4.584;2023-03-26T11:41:19;2.47;;;2.03;;
37781;SDS011;23621;50.878;4.584;2023-03-26T11:44:14;2.80;;;2.38;;
37781;SDS011;23621;50.878;4.584;2023-03-26T11:47:08;2.08;;;1.90;;
37781;SDS011;23621;50.878;4.584;2023-03-26T11:49:57;3.38;;;2.33;;
37781;SDS011;23621;50.878;4.584;2023-03-26T11:52:47;4.70;;;2.33;;
37781;SDS011;23621;50.878;4.584;2023-03-26T11:55:35;6.00;;;3.25;;
37781;SDS011;23621;50.878;4.584;2023-03-26T12:01:56;3.97;;;2.22;;
37781;SDS011;23621;50.878;4.584;2023-03-26T12:04:49;2.88;;;2.15;;
37781;SDS011;23621;50.878;4.584;2023-03-26T12:07:59;2.17;;;1.90;;
37781;SDS011;23621;50.878;4.584;2023-03-26T12:11:07;2.40;;;2.03;;
37781;SDS011;23621;50.878;4.584;2023-03-26T12:13:58;3.53;;;2.90;;
37781;SDS011;23621;50.878;4.584;2023-03-26T12:17:04;3.03;;;2.17;;
37781;SDS011;23621;50.878;4.584;2023-03-26T12:19:53;2.47;;;2.08;;
37781;SDS011;23621;50.878;4.584;2023-03-26T12:22:40;3.22;;;1.98;;
37781;SDS011;23621;50.878;4.584;2023-03-26T12:25:32;2.30;;;2.00;;
37781;SDS011;23621;50.878;4.584;2023-03-26T12:28:21;1.95;;;1.85;;
37781;SDS011;23621;50.878;4.584;2023-03-26T12:31:09;2.78;;;1.90;;
37781;SDS011;23621;50.878;4.584;2023-03-26T12:34:02;2.35;;;2.15;;
37781;SDS011;23621;50.878;4.584;2023-03-26T12:36:46;2.45;;;2.10;;
37781;SDS011;23621;50.878;4.584;2023-03-26T12:39:44;2.20;;;2.10;;
37781;SDS011;23621;50.878;4.584;2023-03-26T12:42:31;2.95;;;2.22;;
37781;SDS011;23621;50.878;4.584;2023-03-26T12:45:20;2.17;;;2.00;;
37781;SDS011;23621;50.878;4.584;2023-03-26T12:48:02;3.22;;;1.80;;
37781;SDS011;23621;50.878;4.584;2023-03-26T12:51:04;1.83;;;1.73;;
37781;SDS011;23621;50.878;4.584;2023-03-26T13:01:46;1.85;;;1.70;;
37781;SDS011;23621;50.878;4.584;2023-03-26T13:15:58;2.70;;;1.52;;
37781;SDS011;23621;50.878;4.584;2023-03-26T13:35:30;2.17;;;1.48;;
37781;SDS011;23621;50.878;4.584;2023-03-26T13:38:03;1.10;;;1.10;;
37781;SDS011;23621;50.878;4.584;2023-03-26T13:46:10;1.30;;;1.20;;
37781;SDS011;23621;50.878;4.584;2023-03-26T13:51:38;1.55;;;1.45;;
37781;SDS011;23621;50.878;4.584;2023-03-26T13:56:51;2.70;;;2.50;;
37781;SDS011;23621;50.878;4.584;2023-03-26T14:00:10;3.42;;;3.13;;
37781;SDS011;23621;50.878;4.584;2023-03-26T14:02:22;2.35;;;1.63;;
37781;SDS011;23621;50.878;4.584;2023-03-26T14:05:17;2.45;;;1.42;;
37781;SDS011;23621;50.878;4.584;2023-03-26T14:07:51;5.55;;;4.32;;
37781;SDS011;23621;50.878;4.584;2023-03-26T14:10:39;2.40;;;2.03;;
37781;SDS011;23621;50.878;4.584;2023-03-26T14:16:09;1.77;;;1.50;;
37781;SDS011;23621;50.878;4.584;2023-03-26T14:19:00;1.25;;;1.20;;
37781;SDS011;23621;50.878;4.584;2023-03-26T14:21:49;1.48;;;1.38;;
37781;SDS011;23621;50.878;4.584;2023-03-26T14:24:32;1.80;;;1.30;;
37781;SDS011;23621;50.878;4.584;2023-03-26T14:27:43;1.73;;;1.40;;
37781;SDS011;23621;50.878;4.584;2023-03-26T14:31:03;1.20;;;1.20;;
37781;SDS011;23621;50.878;4.584;2023-03-26T14:33:19;1.48;;;1.38;;
37781;SDS011;23621;50.878;4.584;2023-03-26T14:41:19;1.10;;;1.10;;
37781;SDS011;23621;50.878;4.584;2023-03-26T14:50:00;1.50;;;1.40;;
37781;SDS011;23621;50.878;4.584;2023-03-26T14:52:46;1.58;;;1.48;;
37781;SDS011;23621;50.878;4.584;2023-03-26T14:55:22;1.77;;;1.60;;
37781;SDS011;23621;50.878;4.584;2023-03-26T15:10:51;1.90;;;1.80;;
37781;SDS011;23621;50.878;4.584;2023-03-26T15:23:43;1.95;;;1.80;;
37781;SDS011;23621;50.878;4.584;2023-03-26T15:32:57;4.47;;;2.00;;
37781;SDS011;23621;50.878;4.584;2023-03-26T15:39:02;2.97;;;2.33;;
37781;SDS011;23621;50.878;4.584;2023-03-26T15:42:21;2.58;;;2.38;;
37781;SDS011;23621;50.878;4.584;2023-03-26T15:57:41;3.30;;;3.00;;
37781;SDS011;23621;50.878;4.584;2023-03-26T16:00:34;3.58;;;2.85;;
37781;SDS011;23621;50.878;4.584;2023-03-26T16:03:32;4.13;;;3.40;;
37781;SDS011;23621;50.878;4.584;2023-03-26T16:06:29;4.13;;;3.65;;
37781;SDS011;23621;50.878;4.584;2023-03-26T16:12:31;6.22;;;4.03;;
37781;SDS011;23621;50.878;4.584;2023-03-26T16:15:29;9.35;;;5.05;;
37781;SDS011;23621;50.878;4.584;2023-03-26T16:18:27;10.18;;;5.22;;
37781;SDS011;23621;50.878;4.584;2023-03-26T16:24:29;5.97;;;5.18;;
37781;SDS011;23621;50.878;4.584;2023-03-26T16:27:25;8.35;;;4.80;;
37781;SDS011;23621;50.878;4.584;2023-03-26T16:30:26;11.05;;;5.10;;
37781;SDS011;23621;50.878;4.584;2023-03-26T16:33:18;6.90;;;4.35;;
37781;SDS011;23621;50.878;4.584;2023-03-26T16:39:21;9.48;;;4.20;;
37781;SDS011;23621;50.878;4.584;2023-03-26T16:42:31;8.68;;;3.78;;
37781;SDS011;23621;50.878;4.584;2023-03-26T16:45:34;7.90;;;3.78;;
37781;SDS011;23621;50.878;4.584;2023-03-26T17:04:16;10.30;;;4.47;;
37781;SDS011;23621;50.878;4.584;2023-03-26T17:07:18;10.70;;;3.60;;
37781;SDS011;23621;50.878;4.584;2023-03-26T17:10:21;10.60;;;4.45;;
37781;SDS011;23621;50.878;4.584;2023-03-26T17:13:23;7.57;;;4.30;;
37781;SDS011;23621;50.878;4.584;2023-03-26T17:16:27;8.60;;;4.00;;
37781;SDS011;23621;50.878;4.584;2023-03-26T17:29:07;10.63;;;3.63;;
37781;SDS011;23621;50.878;4.584;2023-03-26T17:32:10;10.23;;;4.38;;
37781;SDS011;23621;50.878;4.584;2023-03-26T17:35:00;8.30;;;3.30;;
37781;SDS011;23621;50.878;4.584;2023-03-26T17:37:50;7.53;;;3.67;;
37781;SDS011;23621;50.878;4.584;2023-03-26T17:40:49;10.05;;;3.40;;
37781;SDS011;23621;50.878;4.584;2023-03-26T17:43:42;10.13;;;3.03;;
37781;SDS011;23621;50.878;4.584;2023-03-26T17:49:24;10.27;;;3.90;;
37781;SDS011;23621;50.878;4.584;2023-03-26T17:52:21;4.40;;;2.30;;
37781;SDS011;23621;50.878;4.584;2023-03-26T17:55:36;6.35;;;2.40;;
37781;SDS011;23621;50.878;4.584;2023-03-26T18:01:26;6.38;;;2.33;;
37781;SDS011;23621;50.878;4.584;2023-03-26T18:04:23;8.40;;;2.75;;
37781;SDS011;23621;50.878;4.584;2023-03-26T18:17:03;5.45;;;2.60;;
37781;SDS011;23621;50.878;4.584;2023-03-26T18:19:53;5.03;;;2.53;;
37781;SDS011;23621;50.878;4.584;2023-03-26T18:22:48;5.78;;;3.50;;
37781;SDS011;23621;50.878;4.584;2023-03-26T18:25:37;7.65;;;2.75;;
37781;SDS011;23621;50.878;4.584;2023-03-26T18:28:30;9.05;;;2.88;;
37781;SDS011;23621;50.878;4.584;2023-03-26T18:31:25;4.93;;;2.47;;
37781;SDS011;23621;50.878;4.584;2023-03-26T18:34:16;8.68;;;2.80;;
37781;SDS011;23621;50.878;4.584;2023-03-26T18:40:13;8.30;;;2.42;;
37781;SDS011;23621;50.878;4.584;2023-03-26T18:43:10;9.05;;;2.78;;
37781;SDS011;23621;50.878;4.584;2023-03-26T18:46:20;5.90;;;2.17;;
37781;SDS011;23621;50.878;4.584;2023-03-26T18:49:10;6.25;;;2.40;;
37781;SDS011;23621;50.878;4.584;2023-03-26T18:52:00;5.00;;;2.72;;
37781;SDS011;23621;50.878;4.584;2023-03-26T18:54:49;6.90;;;2.35;;
37781;SDS011;23621;50.878;4.584;2023-03-26T18:57:39;8.10;;;2.33;;
37781;SDS011;23621;50.878;4.584;2023-03-26T19:00:28;8.82;;;2.78;;
37781;SDS011;23621;50.878;4.584;2023-03-26T19:03:20;8.18;;;2.75;;
37781;SDS011;23621;50.878;4.584;2023-03-26T19:06:11;7.15;;;3.30;;
37781;SDS011;23621;50.878;4.584;2023-03-26T19:09:01;6.47;;;2.25;;
37781;SDS011;23621;50.878;4.584;2023-03-26T19:12:20;8.68;;;3.05;;
37781;SDS011;23621;50.878;4.584;2023-03-26T19:15:12;6.13;;;2.65;;
37781;SDS011;23621;50.878;4.584;2023-03-26T19:18:02;10.43;;;3.03;;
37781;SDS011;23621;50.878;4.584;2023-03-26T19:21:01;6.47;;;2.97;;
37781;SDS011;23621;50.878;4.584;2023-03-26T19:23:50;7.68;;;2.30;;
37781;SDS011;23621;50.878;4.584;2023-03-26T19:26:38;6.53;;;2.60;;
37781;SDS011;23621;50.878;4.584;2023-03-26T19:29:27;5.00;;;2.50;;
37781;SDS011;23621;50.878;4.584;2023-03-26T19:32:18;6.97;;;2.35;;
37781;SDS011;23621;50.878;4.584;2023-03-26T19:35:17;7.30;;;2.70;;
37781;SDS011;23621;50.878;4.584;2023-03-26T19:41:21;8.10;;;2.60;;
37781;SDS011;23621;50.878;4.584;2023-03-26T19:44:23;10.38;;;3.13;;
37781;SDS011;23621;50.878;4.584;2023-03-26T19:47:16;7.38;;;2.30;;
37781;SDS011;23621;50.878;4.584;2023-03-26T19:58:53;6.03;;;2.28;;
37781;SDS011;23621;50.878;4.584;2023-03-26T20:01:41;5.82;;;2.35;;
37781;SDS011;23621;50.878;4.584;2023-03-26T20:04:29;6.55;;;2.33;;
37781;SDS011;23621;50.878;4.584;2023-03-26T20:07:19;4.45;;;2.42;;
37781;SDS011;23621;50.878;4.584;2023-03-26T20:10:21;5.65;;;2.50;;
37781;SDS011;23621;50.878;4.584;2023-03-26T20:13:13;5.80;;;2.15;;
37781;SDS011;23621;50.878;4.584;2023-03-26T20:16:24;5.72;;;1.90;;
37781;SDS011;23621;50.878;4.584;2023-03-26T20:19:13;5.82;;;2.30;;
37781;SDS011;23621;50.878;4.584;2023-03-26T20:22:01;3.78;;;2.17;;
37781;SDS011;23621;50.878;4.584;2023-03-26T20:24:48;8.13;;;2.13;;
37781;SDS011;23621;50.878;4.584;2023-03-26T20:27:37;4.45;;;2.30;;
37781;SDS011;23621;50.878;4.584;2023-03-26T20:30:24;5.78;;;2.05;;
37781;SDS011;23621;50.878;4.584;2023-03-26T20:33:24;6.28;;;1.98;;
37781;SDS011;23621;50.878;4.584;2023-03-26T20:36:13;3.35;;;1.70;;
37781;SDS011;23621;50.878;4.584;2023-03-26T20:39:21;4.07;;;1.98;;
37781;SDS011;23621;50.878;4.584;2023-03-26T20:42:10;4.32;;;1.90;;
37781;SDS011;23621;50.878;4.584;2023-03-26T20:45:02;6.13;;;2.00;;
37781;SDS011;23621;50.878;4.584;2023-03-26T20:48:00;5.03;;;1.90;;
37781;SDS011;23621;50.878;4.584;2023-03-26T20:50:48;3.83;;;1.80;;
37781;SDS011;23621;50.878;4.584;2023-03-26T20:53:36;9.82;;;2.22;;
37781;SDS011;23621;50.878;4.584;2023-03-26T20:56:23;5.88;;;2.17;;
37781;SDS011;23621;50.878;4.584;2023-03-26T20:59:11;4.60;;;2.33;;
37781;SDS011;23621;50.878;4.584;2023-03-26T21:02:03;4.65;;;2.00;;
37781;SDS011;23621;50.878;4.584;2023-03-26T21:04:50;3.95;;;2.17;;
37781;SDS011;23621;50.878;4.584;2023-03-26T21:07:42;6.65;;;2.47;;
37781;SDS011;23621;50.878;4.584;2023-03-26T21:10:30;10.70;;;2.67;;
37781;SDS011;23621;50.878;4.584;2023-03-26T21:16:19;5.32;;;1.80;;
37781;SDS011;23621;50.878;4.584;2023-03-26T21:19:07;3.13;;;1.80;;
37781;SDS011;23621;50.878;4.584;2023-03-26T21:22:05;4.20;;;1.98;;
37781;SDS011;23621;50.878;4.584;2023-03-26T21:31:25;4.82;;;2.20;;
37781;SDS011;23621;50.878;4.584;2023-03-26T21:34:16;6.40;;;2.30;;
37781;SDS011;23621;50.878;4.584;2023-03-26T21:37:05;5.38;;;2.10;;
37781;SDS011;23621;50.878;4.584;2023-03-26T21:39:53;4.40;;;1.98;;
37781;SDS011;23621;50.878;4.584;2023-03-26T21:42:41;6.35;;;2.20;;
37781;SDS011;23621;50.878;4.584;2023-03-26T21:45:37;5.25;;;2.53;;
37781;SDS011;23621;50.878;4.584;2023-03-26T21:48:25;11.05;;;2.33;;
37781;SDS011;23621;50.878;4.584;2023-03-26T21:51:14;6.22;;;2.13;;
37781;SDS011;23621;50.878;4.584;2023-03-26T21:54:08;4.95;;;2.53;;
37781;SDS011;23621;50.878;4.584;2023-03-26T22:00:17;9.95;;;2.25;;
37781;SDS011;23621;50.878;4.584;2023-03-26T22:03:31;4.00;;;2.08;;
37781;SDS011;23621;50.878;4.584;2023-03-26T22:06:31;3.22;;;1.80;;